Time;durP1;ratioP1;P1;durP2;ratioP2;P2;SDS_P1;SDS_P2;PMS_P1;PMS_P2;Temp;Humidity;BMP_temperature;BMP_pressure;BME280_temperature;BME280_humidity;BME280_pressure;Samples;Min_cycle;Max_cycle;Signal;HPM_P1;HPM_P2
2022/08/09 05:01:46;;;;;;;1.75;1.60;;;17.90;1.00;;;;;;6080375;23;20062;-93
2022/08/09 05:04:38;;;;;;;1.45;1.10;;;17.90;1.00;;;;;;6203522;23;20055;-90
2022/08/09 05:33:13;;;;;;;1.85;1.30;;;17.90;1.00;;;;;;6201520;23;20020;-91
2022/08/09 05:37:22;;;;;;;;;;;;;;;;;;;;;
2022/08/09 05:45:07;;;;;;;1.83;1.52;;;18.00;1.00;;;;;;6018901;23;20022;-92
2022/08/09 05:47:46;;;;;;;;;;;18.00;1.00;;;;;;6043532;23;20026;-92
2022/08/09 05:54:21;;;;;;;3.83;1.60;;;18.00;1.00;;;;;;6069676;23;20025;-89
2022/08/09 05:57:03;;;;;;;2.75;1.55;;;18.00;1.00;;;;;;6078359;23;20028;-93
2022/08/09 05:59:50;;;;;;;2.70;1.33;;;18.00;1.00;;;;;;6104038;23;20018;-91
2022/08/09 06:28:16;;;;;;;6.72;1.65;;;18.20;1.00;;;;;;6199395;23;20255;-92
2022/08/09 06:30:51;;;;;;;;;;;18.30;1.00;;;;;;6169623;23;20016;-91
2022/08/09 06:33:41;;;;;;;1.65;1.20;;;18.40;1.00;;;;;;6171064;23;19943;-89
2022/08/09 06:36:25;;;;;;;2.17;1.67;;;18.30;1.00;;;;;;6163175;23;20239;-91
2022/08/09 06:42:56;;;;;;;2.13;1.65;;;18.40;1.00;;;;;;6162764;23;20017;-91
2022/08/09 06:46:53;;;;;;;;;;;;;;;;;;;;;
2022/08/09 07:18:46;;;;;;;;;;;;;;;;;;;;;
2022/08/09 07:22:18;;;;;;;;;;;;;;;;;;;;;
2022/08/09 07:25:21;;;;;;;2.80;1.15;;;18.70;1.00;;;;;;6042577;23;20019;-90
2022/08/09 07:27:57;;;;;;;1.55;0.90;;;18.80;1.00;;;;;;6161511;23;20068;-93
2022/08/09 07:30:33;;;;;;;1.55;0.80;;;18.80;1.00;;;;;;6138232;23;20027;-93
2022/08/09 07:33:05;;;;;;;2.13;0.90;;;18.80;1.00;;;;;;6163496;23;20401;-93
2022/08/09 07:35:41;;;;;;;3.33;0.85;;;18.90;1.00;;;;;;6163226;23;20016;-92
2022/08/09 07:38:20;;;;;;;0.95;0.60;;;18.90;1.00;;;;;;6139840;23;20511;-91
2022/08/09 07:40:50;;;;;;;0.82;0.70;;;18.90;1.00;;;;;;6161834;23;20021;-91
2022/08/09 07:43:37;;;;;;;2.70;1.33;;;18.90;1.00;;;;;;6141309;23;20422;-91
2022/08/09 07:46:22;;;;;;;2.10;1.10;;;19.00;1.00;;;;;;6140891;23;20020;-92
2022/08/09 07:48:56;;;;;;;1.80;1.23;;;19.10;1.00;;;;;;6138031;23;20027;-90
2022/08/09 07:51:30;;;;;;;4.35;1.48;;;19.00;1.00;;;;;;6138934;23;20017;-92
2022/08/09 07:54:44;;;;;;;1.20;0.80;;;19.00;1.00;;;;;;6142521;23;20017;-93
2022/08/09 07:57:29;;;;;;;1.63;0.70;;;19.00;1.00;;;;;;6166552;23;20017;-94
2022/08/09 08:00:34;;;;;;;5.05;1.13;;;19.00;1.00;;;;;;6160397;23;20001;-94
2022/08/09 08:03:39;;;;;;;2.30;0.70;;;19.10;1.00;;;;;;6168616;23;20001;-93
2022/08/09 08:06:22;;;;;;;2.08;0.50;;;19.20;1.00;;;;;;6191771;23;20001;-94
2022/08/09 08:09:01;;;;;;;4.57;0.93;;;19.20;1.00;;;;;;6166519;23;20040;-92
2022/08/09 08:12:47;;;;;;;2.97;0.73;;;19.20;1.00;;;;;;6161300;23;20028;-91
2022/08/09 08:15:37;;;;;;;1.92;0.90;;;19.30;1.00;;;;;;6174619;23;20021;-90
2022/08/09 08:18:13;;;;;;;3.22;0.90;;;19.30;1.00;;;;;;6162572;23;20023;-92
2022/08/09 08:20:48;;;;;;;1.13;0.75;;;19.40;1.00;;;;;;6137790;23;20017;-89
2022/08/09 08:23:40;;;;;;;1.73;0.75;;;19.40;1.00;;;;;;6163512;23;20429;-91
2022/08/09 08:26:32;;;;;;;1.58;0.68;;;19.40;1.00;;;;;;6141209;23;20021;-91
2022/08/09 08:29:24;;;;;;;11.07;1.65;;;19.40;1.00;;;;;;6188366;23;20327;-93
2022/08/09 08:32:33;;;;;;;;;;;;;;;;;;;;;
2022/08/09 08:35:44;;;;;;;1.35;0.77;;;19.50;1.00;;;;;;6187709;23;20084;-92
2022/08/09 08:38:45;;;;;;;1.08;0.43;;;19.60;1.00;;;;;;6167557;23;20096;-92
2022/08/09 08:42:15;;;;;;;3.55;0.63;;;19.60;1.00;;;;;;6137666;23;20028;-92
2022/08/09 08:48:27;;;;;;;2.70;0.70;;;19.80;1.00;;;;;;6214672;23;20028;-92
2022/08/09 08:51:25;;;;;;;3.63;0.70;;;19.80;1.00;;;;;;6168662;23;20025;-92
2022/08/09 08:55:14;;;;;;;7.80;0.80;;;19.90;1.00;;;;;;6198825;23;20028;-91
2022/08/09 08:58:53;;;;;;;0.80;0.55;;;19.90;1.00;;;;;;6188196;23;20023;-91
2022/08/09 09:01:47;;;;;;;1.25;0.45;;;19.90;1.00;;;;;;6210423;23;20040;-88
2022/08/09 09:08:37;;;;;;;1.50;0.77;;;19.80;1.00;;;;;;6215491;23;20020;-91
2022/08/09 09:11:53;;;;;;;1.45;0.50;;;19.90;1.00;;;;;;6197279;23;20099;-92
2022/08/09 09:14:47;;;;;;;2.28;0.80;;;19.90;1.00;;;;;;6215386;23;20028;-91
2022/08/09 09:17:38;;;;;;;0.82;0.60;;;19.90;1.00;;;;;;6193098;23;20072;-92
2022/08/09 09:20:37;;;;;;;1.35;0.77;;;20.00;1.00;;;;;;6195605;23;20016;-91
2022/08/09 09:23:16;;;;;;;1.13;0.40;;;20.10;1.00;;;;;;6190908;23;20672;-91
2022/08/09 09:26:39;;;;;;;0.35;0.22;;;20.00;1.00;;;;;;6195686;23;20079;-92
2022/08/09 09:30:30;;;;;;;3.22;0.52;;;20.20;1.00;;;;;;6053086;23;20451;-92
2022/08/09 09:36:56;;;;;;;1.30;0.75;;;20.40;1.00;;;;;;6186934;23;20053;-92
2022/08/09 09:39:29;;;;;;;2.55;0.60;;;20.30;1.00;;;;;;6137432;23;20021;-90
2022/08/09 09:42:26;;;;;;;1.92;0.63;;;20.20;1.00;;;;;;6141635;23;20023;-91
2022/08/09 09:45:22;;;;;;;3.47;0.90;;;20.50;1.00;;;;;;6160488;23;20353;-91
2022/08/09 09:48:02;;;;;;;1.77;0.80;;;20.60;1.00;;;;;;6162730;23;20056;-90
2022/08/09 09:50:42;;;;;;;0.90;0.50;;;20.50;1.00;;;;;;6136915;23;20020;-91
2022/08/09 09:53:25;;;;;;;1.55;0.65;;;20.60;1.00;;;;;;6160252;23;20025;-90
2022/08/09 09:56:15;;;;;;;2.47;0.80;;;20.60;1.00;;;;;;6160320;23;20453;-90
2022/08/09 09:58:58;;;;;;;0.90;0.50;;;20.70;1.00;;;;;;6159957;23;20075;-91
2022/08/09 10:01:26;;;;;;;1.25;0.70;;;20.70;1.00;;;;;;6160986;23;20067;-90
2022/08/09 10:04:22;;;;;;;1.67;0.80;;;20.80;1.00;;;;;;6160224;23;20044;-91
2022/08/09 10:07:00;;;;;;;2.90;1.50;;;20.80;1.00;;;;;;6159525;23;20028;-90
2022/08/09 10:09:51;;;;;;;1.98;0.70;;;20.80;1.00;;;;;;6137525;23;20017;-90
2022/08/09 10:12:43;;;;;;;0.85;0.50;;;20.80;1.00;;;;;;6138272;23;20023;-91
2022/08/09 10:15:18;;;;;;;1.17;0.57;;;21.10;1.00;;;;;;6186307;23;20024;-89
2022/08/09 10:18:24;;;;;;;0.80;0.68;;;21.20;1.00;;;;;;6164560;23;20348;-92
2022/08/09 10:21:05;;;;;;;0.60;0.32;;;21.00;1.00;;;;;;6136266;23;20024;-91
2022/08/09 10:23:33;;;;;;;2.58;0.68;;;21.00;1.00;;;;;;6135815;23;20105;-92
2022/08/09 10:26:08;;;;;;;3.90;0.63;;;21.20;1.00;;;;;;6161623;23;20024;-90
2022/08/09 10:28:49;;;;;;;1.83;0.60;;;21.30;1.00;;;;;;6138305;23;20025;-93
2022/08/09 10:31:44;;;;;;;2.88;0.85;;;21.30;1.00;;;;;;6141643;23;20028;-90
2022/08/09 10:35:11;;;;;;;2.42;1.05;;;21.20;1.00;;;;;;6144571;23;20017;-90
2022/08/09 10:38:00;;;;;;;2.85;0.45;;;21.20;1.00;;;;;;6134172;23;20044;-89
2022/08/09 10:41:34;;;;;;;2.33;0.50;;;21.30;1.00;;;;;;6194660;23;20005;-92
2022/08/09 10:44:57;;;;;;;1.23;0.73;;;21.40;1.00;;;;;;6165876;23;20035;-90
2022/08/09 10:48:25;;;;;;;3.20;0.98;;;21.70;1.00;;;;;;6191579;23;20068;-90
2022/08/09 10:56:57;;;;;;;1.35;0.70;;;21.80;1.00;;;;;;6190806;23;20024;-90
2022/08/09 11:00:54;;;;;;;1.15;0.40;;;22.00;1.00;;;;;;6079500;23;20077;-91
2022/08/09 11:05:14;;;;;;;0.88;0.43;;;22.40;1.00;;;;;;6010954;23;20083;-91
2022/08/09 11:08:47;;;;;;;1.23;0.50;;;22.60;1.00;;;;;;6097641;23;20467;-93
2022/08/09 11:16:35;;;;;;;1.77;0.60;;;22.60;1.00;;;;;;6098031;23;20054;-93
2022/08/09 11:19:48;;;;;;;2.90;1.02;;;22.60;1.00;;;;;;6023714;23;20058;-92
2022/08/09 11:23:01;;;;;;;2.90;0.52;;;22.70;1.00;;;;;;6090450;23;20042;-91
2022/08/09 11:25:41;;;;;;;1.45;0.55;;;22.80;1.00;;;;;;6074896;23;20045;-92
2022/08/09 11:28:53;;;;;;;1.10;0.70;;;22.80;1.00;;;;;;6097459;23;20018;-92
2022/08/09 11:31:46;;;;;;;2.63;0.40;;;23.00;1.00;;;;;;6074575;23;20053;-92
2022/08/09 11:34:40;;;;;;;3.22;0.73;;;23.00;1.00;;;;;;6096296;23;20041;-91
2022/08/09 11:37:23;;;;;;;0.57;0.38;;;23.00;1.00;;;;;;6138717;23;20435;-91
2022/08/09 11:40:27;;;;;;;1.45;0.55;;;23.10;1.00;;;;;;6195524;23;20019;-90
2022/08/09 11:43:02;;;;;;;0.73;0.40;;;23.30;1.00;;;;;;6191289;23;20017;-91
2022/08/09 11:48:26;;;;;;;0.73;0.40;;;23.30;1.00;;;;;;6188110;23;20092;-93
2022/08/09 11:50:56;;;;;;;0.75;0.40;;;23.50;1.00;;;;;;6138605;23;20021;-92
2022/08/09 11:54:24;;;;;;;1.38;0.35;;;23.70;1.00;;;;;;6167048;23;20013;-92
2022/08/09 11:57:46;;;;;;;0.40;0.30;;;23.70;1.00;;;;;;6146654;23;20096;-93
2022/08/09 12:04:24;;;;;;;2.17;0.63;;;24.00;1.00;;;;;;6161889;23;20080;-93
2022/08/09 12:07:10;;;;;;;0.90;0.20;;;24.20;1.00;;;;;;6141205;23;20021;-92
2022/08/09 12:09:58;;;;;;;0.45;0.22;;;24.10;1.00;;;;;;6138731;23;20124;-92
2022/08/09 12:13:40;;;;;;;1.00;0.30;;;24.20;1.00;;;;;;6173425;23;20031;-91
2022/08/09 12:16:44;;;;;;;0.50;0.25;;;24.20;1.00;;;;;;6168415;23;20028;-93
2022/08/09 12:19:30;;;;;;;1.55;0.60;;;24.40;1.00;;;;;;6164143;23;20013;-92
2022/08/09 12:22:12;;;;;;;1.05;0.50;;;24.60;1.00;;;;;;6164990;23;20020;-94
2022/08/09 12:25:20;;;;;;;;;;;;;;;;;;;;;
2022/08/09 12:28:27;;;;;;;5.22;0.60;;;24.80;1.00;;;;;;6159902;23;20507;-90
2022/08/09 12:31:30;;;;;;;2.72;0.55;;;25.00;1.00;;;;;;6161647;23;20079;-94
2022/08/09 12:35:22;;;;;;;0.80;0.45;;;25.00;1.00;;;;;;6148179;23;20021;-92
2022/08/09 12:38:17;;;;;;;1.65;0.60;;;25.00;1.00;;;;;;6161740;23;20017;-91
2022/08/09 12:41:41;;;;;;;1.85;0.50;;;25.10;1.00;;;;;;6161305;23;20384;-91
2022/08/09 12:44:31;;;;;;;0.70;0.45;;;25.20;1.00;;;;;;6177368;23;20452;-91
2022/08/09 12:47:31;;;;;;;1.02;0.40;;;25.20;1.00;;;;;;6131462;23;20022;-93
2022/08/09 12:55:24;;;;;;;;;;;;;;;;;;;;;
2022/08/09 12:58:46;;;;;;;1.60;0.50;;;25.10;1.00;;;;;;6064567;23;20097;-92
2022/08/09 13:01:45;;;;;;;3.13;1.08;;;25.30;1.00;;;;;;6043636;23;20023;-92
2022/08/09 13:04:38;;;;;;;3.10;0.90;;;25.30;1.00;;;;;;6061158;23;20085;-92
2022/08/09 13:08:13;;;;;;;;;;;;;;;;;;;;;
2022/08/09 13:11:52;;;;;;;;;;;;;;;;;;;;;
2022/08/09 13:15:50;;;;;;;0.88;0.60;;;25.70;1.00;;;;;;6064975;23;20081;-91
2022/08/09 13:19:49;;;;;;;2.28;0.50;;;25.40;1.00;;;;;;6123707;23;20447;-91
2022/08/09 13:24:28;;;;;;;1.25;0.52;;;26.00;1.00;;;;;;6139339;23;20010;-91
2022/08/09 13:47:33;;;;;;;1.50;0.50;;;26.50;1.00;;;;;;6217752;23;20020;-92
2022/08/09 13:50:29;;;;;;;2.88;1.33;;;26.00;1.00;;;;;;6168511;23;20024;-92
2022/08/09 13:53:00;;;;;;;2.33;0.85;;;26.10;1.00;;;;;;6217474;23;20082;-90
2022/08/09 14:31:10;;;;;;;;;;;;;;;;;;;;;
2022/08/09 14:34:10;;;;;;;0.80;0.80;;;27.10;1.00;;;;;;6184951;23;20318;-91
2022/08/09 14:49:41;;;;;;;2.08;0.90;;;28.30;1.00;;;;;;6218432;23;20392;-92
2022/08/09 14:53:03;;;;;;;1.77;0.68;;;28.20;1.00;;;;;;6218454;23;20032;-92
2022/08/09 14:55:54;;;;;;;1.05;0.60;;;28.30;1.00;;;;;;6218350;23;20009;-92
2022/08/09 14:59:35;;;;;;;1.52;0.65;;;28.80;1.00;;;;;;6179855;23;20527;-90
2022/08/09 15:03:24;;;;;;;;;;;;;;;;;;;;;
2022/08/09 15:06:12;;;;;;;2.40;0.63;;;29.00;1.00;;;;;;5997570;23;20031;-91
2022/08/09 15:09:07;;;;;;;1.98;0.70;;;29.00;1.00;;;;;;6155626;23;20060;-93
2022/08/09 15:12:33;;;;;;;3.38;0.88;;;29.30;1.00;;;;;;6154350;23;20426;-94
2022/08/09 15:16:20;;;;;;;1.10;0.60;;;29.50;1.00;;;;;;6147815;23;20022;-93
2022/08/09 15:19:02;;;;;;;1.48;0.77;;;29.50;1.00;;;;;;6134998;23;20024;-94
2022/08/09 15:25:57;;;;;;;2.28;0.90;;;29.90;1.00;;;;;;6131734;23;20033;-92
2022/08/09 15:29:04;;;;;;;1.73;0.80;;;30.30;1.00;;;;;;6113861;23;20022;-95
2022/08/09 15:32:08;;;;;;;1.52;1.10;;;30.70;1.00;;;;;;6149525;23;20437;-92
2022/08/09 15:35:14;;;;;;;1.63;0.70;;;30.40;1.00;;;;;;6112475;23;20503;-95
2022/08/09 15:38:29;;;;;;;1.25;0.70;;;30.30;1.00;;;;;;6147664;23;20025;-93
2022/08/09 15:41:48;;;;;;;1.02;0.73;;;30.50;1.00;;;;;;6216989;23;20047;-93
2022/08/09 15:49:06;;;;;;;;;;;;;;;;;;;;;
2022/08/09 15:52:25;;;;;;;1.15;0.55;;;31.00;1.00;;;;;;6106591;23;20018;-92
2022/08/09 16:00:47;;;;;;;;;;;;;;;;;;;;;
2022/08/09 16:29:01;;;;;;;2.60;1.00;;;31.50;1.00;;;;;;6216530;23;20058;-91
2022/08/09 16:40:42;;;;;;;1.35;0.70;;;31.00;1.00;;;;;;6054291;23;20015;-91
2022/08/09 16:48:42;;;;;;;0.75;0.52;;;30.40;1.00;;;;;;5981802;24;20035;-91
2022/08/09 17:04:44;;;;;;;1.23;0.73;;;29.10;1.00;;;;;;5873767;24;20099;-92
2022/08/09 17:15:45;;;;;;;1.45;0.80;;;28.80;1.00;;;;;;6115420;23;20035;-92
2022/08/09 17:41:55;;;;;;;1.27;0.82;;;27.00;1.00;;;;;;6163008;23;20767;-91
2022/08/09 17:54:05;;;;;;;1.45;1.02;;;26.80;1.00;;;;;;6161767;23;20067;-90
2022/08/09 18:06:03;;;;;;;1.27;0.52;;;26.50;1.00;;;;;;6202497;23;20048;-89
2022/08/09 18:59:36;;;;;;;0.80;0.40;;;24.80;1.00;;;;;;6189021;23;20032;-91
2022/08/09 19:02:33;;;;;;;1.40;0.70;;;24.80;1.00;;;;;;6157819;23;20029;-89
2022/08/09 19:05:18;;;;;;;3.00;0.90;;;24.70;1.00;;;;;;6157781;23;20128;-90
2022/08/09 19:08:42;;;;;;;;;;;;;;;;;;;;;
2022/08/09 19:12:12;;;;;;;1.80;0.52;;;24.70;1.00;;;;;;6184207;23;20027;-91
2022/08/09 19:14:53;;;;;;;0.60;0.35;;;24.20;1.00;;;;;;6157229;23;20345;-91
